createdAt,value
2023-02-11T00:00:58.418Z,90.50
2023-02-11T00:01:58.721Z,92.10
2023-02-11T00:02:58.858Z,99.10
2023-02-11T00:03:58.987Z,83.30
2023-02-11T00:04:59.211Z,88.30
2023-02-11T00:05:59.486Z,107.60
2023-02-11T00:06:59.704Z,94.10
2023-02-11T00:07:59.943Z,88.20
2023-02-11T00:09:00.180Z,84.40
2023-02-11T00:10:00.415Z,86.50
2023-02-11T00:11:00.650Z,99.10
2023-02-11T00:12:00.876Z,91.00
2023-02-11T00:13:01.098Z,85.00
2023-02-11T00:14:01.343Z,83.30
2023-02-11T00:15:01.576Z,88.80
2023-02-11T00:16:01.801Z,85.60
2023-02-11T00:17:02.089Z,93.10
2023-02-11T00:18:02.207Z,79.00
2023-02-11T00:19:02.429Z,77.10
2023-02-11T00:20:02.644Z,76.30
2023-02-11T00:21:02.884Z,94.90
2023-02-11T00:22:03.097Z,86.10
2023-02-11T00:23:03.318Z,82.20
2023-02-11T00:24:03.544Z,74.60
2023-02-11T00:25:03.774Z,83.20
2023-02-11T00:26:04.020Z,74.80
2023-02-11T00:27:04.249Z,77.60
2023-02-11T00:28:04.487Z,83.90
2023-02-11T00:29:04.707Z,77.20
2023-02-11T00:30:04.928Z,75.80
2023-02-11T00:31:05.310Z,78.30
2023-02-11T00:32:05.369Z,73.00
2023-02-11T00:33:09.545Z,80.70
2023-02-11T00:34:05.740Z,77.60
2023-02-11T00:35:05.959Z,82.00
2023-02-11T00:36:06.204Z,82.40
2023-02-11T00:37:06.411Z,76.40
2023-02-11T00:38:06.650Z,76.20
2023-02-11T00:39:06.833Z,77.00
2023-02-11T00:40:07.060Z,74.50
2023-02-11T00:41:07.287Z,78.10
2023-02-11T00:42:07.515Z,80.70
2023-02-11T00:43:07.780Z,76.10
2023-02-11T00:44:07.899Z,83.60
2023-02-11T00:45:08.113Z,72.30
2023-02-11T00:46:08.410Z,76.30
2023-02-11T00:47:08.567Z,75.30
2023-02-11T00:48:08.794Z,73.20
2023-02-11T00:49:09.009Z,74.30
2023-02-11T00:50:09.230Z,73.50
2023-02-11T00:51:09.467Z,73.70
2023-02-11T00:52:09.678Z,75.20
2023-02-11T00:53:09.886Z,71.10
2023-02-11T00:54:10.105Z,75.20
2023-02-11T00:55:10.324Z,72.00
2023-02-11T00:56:10.566Z,73.70
2023-02-11T00:57:10.779Z,73.50
2023-02-11T00:58:10.995Z,75.00
2023-02-11T00:59:11.206Z,75.50
2023-02-11T01:00:11.423Z,71.20
2023-02-11T01:01:11.672Z,71.80
2023-02-11T01:02:11.876Z,71.00
2023-02-11T01:03:12.074Z,70.70
2023-02-11T01:04:12.283Z,70.50
2023-02-11T01:05:12.599Z,71.10
2023-02-11T01:06:12.700Z,75.70
2023-02-11T01:07:12.838Z,73.70
2023-02-11T01:08:13.068Z,70.90
2023-02-11T01:09:13.286Z,72.20
2023-02-11T01:10:13.515Z,70.30
2023-02-11T01:11:13.718Z,70.80
2023-02-11T01:12:13.952Z,69.70
2023-02-11T01:13:14.144Z,70.60
2023-02-11T01:14:14.363Z,71.10
2023-02-11T01:15:14.564Z,71.70
2023-02-11T01:16:14.831Z,68.90
2023-02-11T01:17:14.938Z,68.30
2023-02-11T01:18:15.149Z,68.60
2023-02-11T01:19:15.358Z,68.80
2023-02-11T01:20:15.576Z,70.30
2023-02-11T01:21:15.792Z,70.80
2023-02-11T01:22:16.006Z,71.00
2023-02-11T01:23:16.217Z,71.70
2023-02-11T01:24:16.437Z,66.90
2023-02-11T01:25:16.644Z,70.00
2023-02-11T01:26:16.901Z,72.60
2023-02-11T01:27:17.092Z,68.60
2023-02-11T01:28:17.394Z,67.90
2023-02-11T01:29:17.500Z,73.10
2023-02-11T01:30:17.705Z,68.80
2023-02-11T01:31:17.961Z,70.80
2023-02-11T01:32:18.203Z,64.00
2023-02-11T01:33:18.348Z,64.70
2023-02-11T01:34:18.570Z,65.40
2023-02-11T01:35:18.788Z,69.40
2023-02-11T01:36:19.006Z,69.40
2023-02-11T01:37:19.207Z,67.60
2023-02-11T01:38:19.427Z,71.20
2023-02-11T01:39:19.623Z,67.70
2023-02-11T01:40:19.836Z,69.40
2023-02-11T01:41:20.052Z,70.00
2023-02-11T01:42:20.268Z,66.10
2023-02-11T01:43:20.475Z,67.70
2023-02-11T01:44:20.675Z,67.90
2023-02-11T01:45:20.878Z,67.90
2023-02-11T01:46:21.158Z,64.40
2023-02-11T01:47:21.259Z,67.40
2023-02-11T01:48:21.466Z,70.00
2023-02-11T01:49:21.712Z,70.50
2023-02-11T01:50:21.853Z,69.50
2023-02-11T01:51:22.059Z,67.20
2023-02-11T01:52:22.290Z,65.40
2023-02-11T01:53:22.485Z,67.90
2023-02-11T01:54:22.696Z,69.00
2023-02-11T01:55:22.895Z,70.00
2023-02-11T01:56:23.129Z,66.80
2023-02-11T01:57:23.354Z,71.30
2023-02-11T01:58:23.535Z,69.80
2023-02-11T01:59:23.742Z,68.70
2023-02-11T02:00:23.958Z,70.00
2023-02-11T02:01:24.339Z,67.20
2023-02-11T02:02:24.344Z,64.80
2023-02-11T02:03:24.569Z,69.90
2023-02-11T02:04:24.763Z,66.10
2023-02-11T02:05:24.975Z,65.90
2023-02-11T02:06:25.182Z,69.90
2023-02-11T02:07:25.382Z,63.40
2023-02-11T02:08:25.588Z,65.90
2023-02-11T02:09:25.780Z,69.20
2023-02-11T02:10:25.984Z,69.80
2023-02-11T02:11:26.197Z,70.80
2023-02-11T02:12:26.405Z,68.30
2023-02-11T02:13:26.601Z,70.60
2023-02-11T02:14:26.817Z,70.50
2023-02-11T02:15:27.009Z,68.00
2023-02-11T02:16:27.241Z,68.60
2023-02-11T02:17:27.371Z,69.00
2023-02-11T02:18:27.624Z,73.40
2023-02-11T02:19:27.795Z,67.40
2023-02-11T02:20:27.997Z,69.90
2023-02-11T02:21:28.232Z,71.20
2023-02-11T02:22:28.431Z,70.90
2023-02-11T02:23:28.641Z,69.30
2023-02-11T02:24:28.840Z,68.40
2023-02-11T02:25:29.039Z,64.60
2023-02-11T02:26:29.249Z,67.30
2023-02-11T02:27:29.459Z,69.50
2023-02-11T02:28:29.698Z,68.70
2023-02-11T02:29:29.819Z,70.40
2023-02-11T02:30:30.043Z,72.50
2023-02-11T02:31:30.306Z,71.90
2023-02-11T02:32:30.385Z,71.70
2023-02-11T02:33:30.602Z,66.50
2023-02-11T02:34:30.798Z,65.90
2023-02-11T02:35:30.996Z,70.50
2023-02-11T02:36:38.208Z,68.40
2023-02-11T02:37:31.390Z,71.80
2023-02-11T02:38:31.586Z,66.50
2023-02-11T02:39:31.816Z,69.10
2023-02-11T02:40:31.985Z,66.70
2023-02-11T02:41:32.238Z,71.90
2023-02-11T02:42:32.414Z,70.10
2023-02-11T02:43:32.689Z,69.00
2023-02-11T02:44:32.752Z,70.80
2023-02-11T02:45:32.979Z,71.60
2023-02-11T02:46:33.252Z,70.70
2023-02-11T02:47:33.428Z,68.70
2023-02-11T02:48:33.631Z,69.60
2023-02-11T02:49:33.837Z,73.60
2023-02-11T02:50:34.039Z,74.10
2023-02-11T02:51:34.262Z,67.50
2023-02-11T02:52:34.454Z,70.40
2023-02-11T02:53:34.643Z,70.80
2023-02-11T02:54:34.892Z,70.20
2023-02-11T02:55:35.005Z,71.30
2023-02-11T02:56:35.206Z,69.50
2023-02-11T02:57:35.409Z,71.10
2023-02-11T02:58:35.602Z,66.80
2023-02-11T02:59:35.798Z,74.70
2023-02-11T03:00:36.044Z,73.20
2023-02-11T03:01:36.270Z,67.90
2023-02-11T03:02:36.459Z,71.30
2023-02-11T03:03:36.668Z,73.70
2023-02-11T03:04:36.837Z,76.40
2023-02-11T03:05:37.031Z,70.40
2023-02-11T03:06:37.244Z,71.10
2023-02-11T03:07:37.426Z,71.50
2023-02-11T03:08:37.616Z,74.70
2023-02-11T03:09:37.803Z,71.90
2023-02-11T03:10:37.992Z,71.90
2023-02-11T03:11:38.216Z,70.30
2023-02-11T03:12:38.389Z,74.60
2023-02-11T03:13:38.610Z,68.30
2023-02-11T03:14:38.792Z,74.80
2023-02-11T03:15:39.013Z,73.50
2023-02-11T03:16:39.467Z,71.70
2023-02-11T03:17:39.514Z,77.60
2023-02-11T03:18:39.714Z,70.50
2023-02-11T03:19:39.925Z,72.60
2023-02-11T03:20:40.109Z,73.00
2023-02-11T03:21:40.329Z,74.70
2023-02-11T03:22:40.501Z,76.80
2023-02-11T03:23:40.712Z,70.40
2023-02-11T03:24:40.881Z,79.10
2023-02-11T03:25:41.074Z,75.00
2023-02-11T03:26:41.274Z,74.40
2023-02-11T03:27:41.482Z,76.10
2023-02-11T03:28:41.672Z,77.50
2023-02-11T03:29:41.870Z,71.20
2023-02-11T03:30:42.084Z,75.20
2023-02-11T03:31:42.431Z,75.50
2023-02-11T03:32:42.498Z,74.50
2023-02-11T03:33:42.684Z,71.60
2023-02-11T03:34:42.899Z,72.20
2023-02-11T03:35:43.078Z,71.90
2023-02-11T03:36:43.277Z,79.40
2023-02-11T03:37:43.480Z,74.10
2023-02-11T03:38:43.672Z,75.60
2023-02-11T03:39:43.860Z,77.00
2023-02-11T03:40:44.076Z,76.40
2023-02-11T03:41:44.296Z,74.30
2023-02-11T03:42:44.474Z,74.30
2023-02-11T03:43:44.670Z,77.40
2023-02-11T03:44:44.853Z,76.30
2023-02-11T03:45:45.055Z,73.00
2023-02-11T03:46:45.247Z,73.70
2023-02-11T03:47:45.433Z,76.40
2023-02-11T03:48:45.616Z,79.60
2023-02-11T03:49:45.824Z,76.10
2023-02-11T03:50:46.030Z,79.90
2023-02-11T03:51:46.248Z,75.20
2023-02-11T03:52:46.442Z,79.40
2023-02-11T03:53:46.645Z,80.80
2023-02-11T03:54:46.829Z,77.70
2023-02-11T03:55:47.020Z,77.40
2023-02-11T03:56:47.232Z,76.80
2023-02-11T03:57:47.440Z,81.90
2023-02-11T03:58:47.614Z,74.60
2023-02-11T03:59:47.804Z,79.40
2023-02-11T04:00:48.037Z,81.10
2023-02-11T04:01:48.253Z,79.10
2023-02-11T04:02:48.491Z,76.50
2023-02-11T04:03:48.572Z,79.70
2023-02-11T04:04:48.761Z,81.50
2023-02-11T04:05:49.125Z,78.80
2023-02-11T04:06:49.127Z,77.20
2023-02-11T04:07:49.316Z,82.40
2023-02-11T04:08:49.511Z,81.10
2023-02-11T04:09:49.709Z,82.40
2023-02-11T04:10:49.896Z,82.10
2023-02-11T04:11:50.168Z,81.40
2023-02-11T04:12:50.233Z,83.00
2023-02-11T04:13:50.442Z,80.30
2023-02-11T04:14:50.624Z,80.70
2023-02-11T04:15:51.122Z,80.50
2023-02-11T04:16:51.021Z,80.60
2023-02-11T04:17:51.220Z,81.30
2023-02-11T04:18:51.399Z,80.50
2023-02-11T04:19:51.596Z,84.20
2023-02-11T04:20:51.796Z,78.20
2023-02-11T04:21:52.010Z,78.00
2023-02-11T04:22:52.196Z,78.90
2023-02-11T04:23:52.382Z,83.50
2023-02-11T04:24:52.563Z,85.90
2023-02-11T04:25:53.030Z,78.90
2023-02-11T04:26:52.992Z,84.10
2023-02-11T04:27:53.179Z,82.00
2023-02-11T04:28:53.362Z,80.40
2023-02-11T04:29:53.558Z,83.20
2023-02-11T04:30:53.794Z,81.70
2023-02-11T04:31:54.069Z,81.30
2023-02-11T04:32:54.240Z,82.70
2023-02-11T04:33:54.428Z,83.20
2023-02-11T04:34:54.542Z,84.60
2023-02-11T04:35:54.705Z,82.10
2023-02-11T04:36:54.903Z,84.30
2023-02-11T04:37:55.101Z,87.20
2023-02-11T04:38:55.293Z,81.70
2023-02-11T04:39:55.483Z,88.10
2023-02-11T04:40:55.670Z,89.40
2023-02-11T04:41:55.909Z,89.20
2023-02-11T04:42:56.096Z,91.80
2023-02-11T04:43:56.269Z,92.00
2023-02-11T04:44:56.538Z,89.40
2023-02-11T04:45:56.752Z,89.00
2023-02-11T04:46:56.948Z,90.70
2023-02-11T04:47:57.158Z,89.10
2023-02-11T04:48:57.342Z,91.80
2023-02-11T04:49:57.547Z,87.40
2023-02-11T04:50:57.744Z,88.20
2023-02-11T04:51:57.961Z,92.10
2023-02-11T04:52:58.152Z,92.90
2023-02-11T04:53:58.337Z,90.50
2023-02-11T04:54:58.531Z,94.10
2023-02-11T04:55:58.735Z,90.40
2023-02-11T04:56:58.947Z,89.60
2023-02-11T04:57:59.158Z,89.20
2023-02-11T04:58:59.346Z,96.90
2023-02-11T04:59:59.570Z,87.20
2023-02-11T05:00:59.780Z,88.60
2023-02-11T05:01:59.934Z,90.00
2023-02-11T05:03:00.074Z,89.30
2023-02-11T05:04:00.232Z,93.30
2023-02-11T05:05:00.344Z,92.60
2023-02-11T05:06:00.606Z,95.80
2023-02-11T05:07:00.851Z,86.00
2023-02-11T05:08:01.034Z,92.20
2023-02-11T05:09:01.216Z,92.70
2023-02-11T05:10:01.420Z,93.00
2023-02-11T05:11:01.592Z,99.80
2023-02-11T05:12:01.803Z,88.30
2023-02-11T05:13:01.982Z,92.60
2023-02-11T05:14:02.233Z,93.10
2023-02-11T05:15:02.306Z,128.00
2023-02-11T05:16:02.488Z,108.70
2023-02-11T05:17:02.724Z,108.50
2023-02-11T05:18:02.969Z,106.00
2023-02-11T05:19:03.158Z,95.60
2023-02-11T05:20:03.358Z,95.20
2023-02-11T05:21:03.543Z,102.50
2023-02-11T05:22:03.933Z,99.50
2023-02-11T05:23:03.859Z,97.30
2023-02-11T05:24:04.072Z,99.00
2023-02-11T05:25:04.284Z,98.60
2023-02-11T05:26:04.489Z,97.20
2023-02-11T05:27:04.690Z,97.50
2023-02-11T05:28:04.909Z,106.20
2023-02-11T05:29:05.093Z,103.10
2023-02-11T05:30:05.305Z,95.50
2023-02-11T05:31:05.557Z,98.10
2023-02-11T05:32:05.665Z,96.30
2023-02-11T05:33:05.874Z,96.80
2023-02-11T05:34:06.117Z,98.30
2023-02-11T05:35:06.193Z,112.40
2023-02-11T05:36:06.405Z,100.00
2023-02-11T05:37:06.646Z,115.40
2023-02-11T05:38:06.821Z,101.20
2023-02-11T05:39:07.007Z,98.30
2023-02-11T05:40:07.207Z,102.10
2023-02-11T05:41:07.404Z,112.90
2023-02-11T05:42:07.628Z,101.00
2023-02-11T05:43:07.823Z,102.00
2023-02-11T05:44:08.059Z,109.80
2023-02-11T05:45:08.290Z,104.90
2023-02-11T05:46:08.543Z,105.30
2023-02-11T05:47:08.730Z,104.50
2023-02-11T05:48:08.925Z,98.70
2023-02-11T05:49:09.110Z,104.20
2023-02-11T05:50:09.319Z,103.90
2023-02-11T05:51:09.528Z,103.90
2023-02-11T05:52:09.718Z,106.80
2023-02-11T05:53:09.927Z,107.60
2023-02-11T05:54:10.153Z,109.10
2023-02-11T05:55:10.348Z,106.80
2023-02-11T05:56:10.556Z,111.60
2023-02-11T05:57:10.763Z,109.30
2023-02-11T05:58:10.917Z,106.50
2023-02-11T05:59:11.116Z,108.50
2023-02-11T06:00:11.346Z,110.00
2023-02-11T06:01:11.556Z,114.30
2023-02-11T06:02:11.790Z,111.60
2023-02-11T06:03:11.886Z,111.00
2023-02-11T06:04:12.104Z,111.70
2023-02-11T06:05:12.314Z,113.80
2023-02-11T06:06:12.570Z,120.90
2023-02-11T06:07:12.765Z,114.30
2023-02-11T06:08:12.993Z,114.80
2023-02-11T06:09:13.177Z,118.30
2023-02-11T06:10:13.387Z,115.10
2023-02-11T06:11:13.592Z,114.00
2023-02-11T06:12:13.853Z,111.30
2023-02-11T06:13:13.967Z,110.80
2023-02-11T06:14:14.145Z,111.40
2023-02-11T06:15:14.326Z,115.40
2023-02-11T06:16:14.624Z,113.50
2023-02-11T06:17:15.702Z,124.50
2023-02-11T06:18:14.880Z,116.60
2023-02-11T06:19:15.081Z,111.30
2023-02-11T06:20:15.279Z,112.70
2023-02-11T06:21:15.476Z,116.10
2023-02-11T06:22:15.690Z,110.10
2023-02-11T06:23:15.879Z,113.30
2023-02-11T06:24:21.651Z,118.60
2023-02-11T06:25:17.252Z,109.00
2023-02-11T06:26:16.453Z,114.50
2023-02-11T06:27:16.658Z,115.30
2023-02-11T06:28:16.934Z,120.10
2023-02-11T06:29:17.031Z,118.50
2023-02-11T06:30:17.236Z,116.80
2023-02-11T06:31:17.571Z,117.70
2023-02-11T06:32:39.444Z,122.50
2023-02-11T06:33:18.716Z,121.10
2023-02-11T06:34:17.921Z,120.60
2023-02-11T06:35:18.114Z,128.30
2023-02-11T06:36:18.312Z,126.60
2023-02-11T06:37:18.513Z,122.60
2023-02-11T06:38:18.706Z,126.20
2023-02-11T06:39:18.897Z,125.90
2023-02-11T06:40:19.084Z,120.90
2023-02-11T06:41:19.284Z,126.80
2023-02-11T06:42:19.484Z,125.20
2023-02-11T06:43:19.722Z,133.60
2023-02-11T06:44:19.909Z,127.80
2023-02-11T06:45:20.109Z,130.10
2023-02-11T06:46:20.317Z,131.40
2023-02-11T06:47:20.510Z,132.20
2023-02-11T06:48:20.699Z,133.90
2023-02-11T06:49:20.896Z,131.40
2023-02-11T06:50:21.101Z,134.00
2023-02-11T06:51:21.291Z,133.10
2023-02-11T06:52:21.501Z,129.70
2023-02-11T06:53:21.696Z,132.80
2023-02-11T06:54:21.911Z,124.40
2023-02-11T06:55:22.089Z,130.70
2023-02-11T06:56:22.285Z,134.20
2023-02-11T06:57:22.499Z,130.80
2023-02-11T06:58:22.694Z,131.70
2023-02-11T06:59:22.880Z,132.70
2023-02-11T07:00:23.085Z,133.70
2023-02-11T07:01:23.328Z,130.50
2023-02-11T07:02:23.437Z,129.30
2023-02-11T07:03:23.646Z,137.20
2023-02-11T07:04:23.836Z,130.30
2023-02-11T07:05:24.041Z,128.80
2023-02-11T07:06:24.250Z,127.30
2023-02-11T07:07:24.483Z,131.00
2023-02-11T07:08:24.682Z,130.60
2023-02-11T07:09:24.890Z,124.20
2023-02-11T07:10:25.087Z,131.60
2023-02-11T07:11:25.342Z,127.90
2023-02-11T07:12:25.556Z,129.10
2023-02-11T07:13:25.758Z,129.00
2023-02-11T07:14:25.954Z,128.20
2023-02-11T07:15:26.175Z,130.20
2023-02-11T07:16:26.407Z,130.50
2023-02-11T07:17:26.617Z,131.30
2023-02-11T07:18:26.824Z,123.60
2023-02-11T07:19:27.033Z,130.70
2023-02-11T07:20:27.240Z,127.50
2023-02-11T07:21:27.463Z,126.00
2023-02-11T07:22:27.689Z,123.80
2023-02-11T07:23:27.937Z,119.90
2023-02-11T07:24:28.030Z,120.70
2023-02-11T07:25:28.246Z,125.60
2023-02-11T07:26:28.450Z,126.50
2023-02-11T07:27:28.681Z,132.20
2023-02-11T07:28:28.928Z,119.70
2023-02-11T07:29:29.111Z,130.40
2023-02-11T07:30:29.368Z,127.20
2023-02-11T07:31:29.625Z,121.50
2023-02-11T07:32:29.631Z,121.60
2023-02-11T07:33:29.849Z,120.70
2023-02-11T07:34:30.190Z,122.10
2023-02-11T07:35:30.204Z,123.50
2023-02-11T07:36:30.417Z,116.70
2023-02-11T07:37:30.650Z,121.90
2023-02-11T07:38:30.850Z,120.40
2023-02-11T07:39:31.064Z,126.40
2023-02-11T07:40:31.259Z,118.10
2023-02-11T07:41:31.457Z,120.90
2023-02-11T07:42:31.671Z,127.40
2023-02-11T07:43:31.873Z,115.70
2023-02-11T07:44:32.067Z,126.00
2023-02-11T07:45:32.295Z,115.20
2023-02-11T07:46:32.559Z,117.90
2023-02-11T07:47:32.705Z,119.10
2023-02-11T07:48:32.899Z,117.40
2023-02-11T07:49:33.124Z,114.90
2023-02-11T07:50:33.315Z,116.60
2023-02-11T07:51:33.507Z,118.40
2023-02-11T07:52:33.715Z,118.60
2023-02-11T07:53:33.923Z,121.00
2023-02-11T07:54:34.120Z,117.70
2023-02-11T07:55:34.316Z,117.80
2023-02-11T07:56:34.522Z,112.40
2023-02-11T07:57:34.721Z,119.80
2023-02-11T07:58:34.929Z,119.70
2023-02-11T07:59:35.139Z,122.10
2023-02-11T08:00:35.406Z,118.70
2023-02-11T08:01:35.576Z,121.60
2023-02-11T08:02:35.878Z,117.90
2023-02-11T08:03:35.926Z,115.80
2023-02-11T08:04:36.131Z,115.90
2023-02-11T08:05:36.329Z,116.60
2023-02-11T08:06:36.525Z,115.70
2023-02-11T08:07:36.741Z,116.80
2023-02-11T08:08:36.932Z,115.50
2023-02-11T08:09:37.134Z,114.50
2023-02-11T08:10:37.315Z,114.90
2023-02-11T08:11:37.516Z,114.70
2023-02-11T08:12:37.722Z,110.90
2023-02-11T08:13:37.929Z,114.30
2023-02-11T08:14:38.131Z,114.60
2023-02-11T08:15:38.346Z,114.70
2023-02-11T08:16:38.582Z,113.20
2023-02-11T08:17:38.809Z,113.80
2023-02-11T08:18:38.892Z,119.10
2023-02-11T08:19:39.085Z,115.20
2023-02-11T08:20:39.316Z,112.50
2023-02-11T08:21:39.451Z,112.10
2023-02-11T08:22:39.563Z,113.00
2023-02-11T08:23:39.762Z,115.90
2023-02-11T08:24:39.954Z,111.90
2023-02-11T08:25:40.140Z,114.00
2023-02-11T08:26:40.339Z,111.40
2023-02-11T08:27:40.531Z,109.40
2023-02-11T08:28:40.715Z,114.60
2023-02-11T08:29:40.914Z,118.50
2023-02-11T08:30:41.107Z,118.10
2023-02-11T08:31:41.445Z,112.80
2023-02-11T08:32:41.458Z,122.10
2023-02-11T08:33:41.665Z,147.40
2023-02-11T08:34:41.851Z,125.50
2023-02-11T08:35:42.028Z,138.10
2023-02-11T08:36:49.227Z,158.90
2023-02-11T08:37:42.409Z,164.30
2023-02-11T08:38:42.611Z,134.00
2023-02-11T08:39:42.845Z,127.10
2023-02-11T08:40:42.922Z,126.60
2023-02-11T08:41:43.128Z,126.30
2023-02-11T08:42:43.383Z,127.20
2023-02-11T08:43:43.463Z,120.30
2023-02-11T08:44:43.669Z,127.00
2023-02-11T08:45:43.954Z,135.20
2023-02-11T08:46:44.018Z,141.60
2023-02-11T08:47:44.235Z,139.00
2023-02-11T08:48:44.465Z,137.20
2023-02-11T08:49:44.568Z,131.80
2023-02-11T08:50:44.765Z,129.00
2023-02-11T08:51:44.949Z,125.90
2023-02-11T08:52:45.157Z,172.10
2023-02-11T08:53:45.360Z,140.90
2023-02-11T08:54:45.547Z,138.30
2023-02-11T08:55:45.737Z,127.50
2023-02-11T08:56:45.924Z,117.80
2023-02-11T08:57:46.175Z,117.40
2023-02-11T08:58:46.253Z,125.50
2023-02-11T08:59:46.471Z,167.70
2023-02-11T09:00:46.620Z,126.40
2023-02-11T09:01:46.821Z,118.90
2023-02-11T09:02:47.030Z,119.10
2023-02-11T09:03:47.294Z,161.30
2023-02-11T09:04:47.363Z,139.40
2023-02-11T09:05:47.569Z,134.10
2023-02-11T09:06:47.755Z,120.70
2023-02-11T09:07:47.985Z,126.80
2023-02-11T09:08:48.184Z,153.00
2023-02-11T09:09:48.371Z,159.70
2023-02-11T09:10:48.994Z,130.50
2023-02-11T09:11:48.719Z,122.10
2023-02-11T09:12:48.923Z,123.00
2023-02-11T09:13:51.463Z,130.20
2023-02-11T09:14:49.308Z,125.80
2023-02-11T09:15:49.508Z,131.40
2023-02-11T09:16:49.761Z,116.00
2023-02-11T09:17:49.941Z,110.80
2023-02-11T09:18:50.117Z,129.00
2023-02-11T09:19:50.296Z,110.70
2023-02-11T09:20:50.857Z,116.60
2023-02-11T09:21:50.697Z,114.90
2023-02-11T09:22:50.886Z,112.00
2023-02-11T09:23:51.104Z,106.30
2023-02-11T09:24:51.333Z,111.00
2023-02-11T09:25:51.909Z,109.30
2023-02-11T09:26:51.685Z,107.50
2023-02-11T09:27:51.895Z,104.50
2023-02-11T09:28:52.130Z,101.40
2023-02-11T09:29:52.325Z,102.50
2023-02-11T09:30:52.985Z,107.80
2023-02-11T09:31:52.914Z,100.80
2023-02-11T09:32:52.881Z,102.60
2023-02-11T09:33:53.124Z,99.50
2023-02-11T09:34:53.191Z,105.20
2023-02-11T09:35:53.394Z,99.20
2023-02-11T09:36:53.597Z,105.30
2023-02-11T09:37:53.821Z,102.40
2023-02-11T09:38:54.000Z,103.30
2023-02-11T09:39:54.190Z,101.30
2023-02-11T09:40:54.385Z,103.60
2023-02-11T09:41:54.578Z,98.00
2023-02-11T09:42:56.093Z,99.60
2023-02-11T09:43:54.972Z,101.20
2023-02-11T09:44:55.186Z,100.90
2023-02-11T09:45:55.401Z,94.70
2023-02-11T09:46:55.650Z,102.10
2023-02-11T09:47:55.739Z,96.20
2023-02-11T09:48:55.930Z,104.10
2023-02-11T09:49:56.128Z,98.50
2023-02-11T09:50:56.317Z,102.70
2023-02-11T09:51:56.521Z,100.20
2023-02-11T09:52:56.729Z,92.20
2023-02-11T09:53:59.397Z,93.60
2023-02-11T09:54:57.150Z,95.60
2023-02-11T09:55:57.332Z,93.10
2023-02-11T09:56:57.519Z,100.40
2023-02-11T09:57:57.729Z,92.40
2023-02-11T09:58:57.914Z,94.10
2023-02-11T09:59:58.235Z,96.00
2023-02-11T10:00:58.241Z,96.60
2023-02-11T10:01:58.421Z,96.80
2023-02-11T10:02:58.640Z,93.20
2023-02-11T10:03:58.886Z,98.10
2023-02-11T10:04:58.981Z,96.60
2023-02-11T10:05:59.175Z,91.90
2023-02-11T10:06:59.341Z,99.10
2023-02-11T10:07:59.546Z,97.60
2023-02-11T10:08:59.753Z,99.10
2023-02-11T10:09:59.949Z,105.30
2023-02-11T10:11:00.146Z,101.00
2023-02-11T10:12:00.338Z,93.60
2023-02-11T10:13:00.561Z,99.90
2023-02-11T10:14:00.746Z,94.80
2023-02-11T10:15:00.928Z,96.20
2023-02-11T10:16:01.161Z,96.50
2023-02-11T10:17:01.284Z,93.10
2023-02-11T10:18:01.489Z,94.10
2023-02-11T10:19:01.597Z,97.90
2023-02-11T10:20:01.799Z,105.30
2023-02-11T10:21:01.993Z,107.70
2023-02-11T10:22:02.192Z,101.10
2023-02-11T10:23:02.396Z,105.80
2023-02-11T10:24:02.592Z,106.10
2023-02-11T10:25:02.808Z,108.00
2023-02-11T10:26:02.949Z,104.50
2023-02-11T10:27:03.135Z,105.80
2023-02-11T10:28:03.375Z,108.20
2023-02-11T10:29:03.489Z,111.00
2023-02-11T10:30:03.685Z,111.00
2023-02-11T10:31:03.981Z,112.90
2023-02-11T10:32:04.146Z,116.10
2023-02-11T10:33:04.240Z,107.80
2023-02-11T10:34:04.436Z,108.50
2023-02-11T10:35:04.715Z,111.10
2023-02-11T10:36:04.810Z,106.80
2023-02-11T10:37:04.973Z,110.70
2023-02-11T10:38:05.163Z,108.00
2023-02-11T10:39:05.346Z,111.70
2023-02-11T10:40:05.534Z,112.60
2023-02-11T10:41:05.712Z,112.40
2023-02-11T10:42:05.900Z,111.30
2023-02-11T10:43:06.097Z,107.70
2023-02-11T10:44:06.319Z,121.60
2023-02-11T10:45:06.499Z,107.30
2023-02-11T10:46:06.739Z,108.70
2023-02-11T10:47:06.801Z,121.40
2023-02-11T10:48:07.020Z,110.70
2023-02-11T10:49:07.188Z,115.20
2023-02-11T10:50:07.370Z,124.10
2023-02-11T10:51:07.549Z,116.50
2023-02-11T10:52:07.729Z,115.70
2023-02-11T10:53:07.923Z,122.80
2023-02-11T10:54:08.110Z,124.80
2023-02-11T10:55:08.313Z,120.70
2023-02-11T10:56:08.502Z,113.90
2023-02-11T10:57:08.683Z,117.90
2023-02-11T10:58:08.876Z,122.50
2023-02-11T10:59:09.059Z,121.80
2023-02-11T11:00:09.235Z,120.50
2023-02-11T11:01:23.508Z,123.80
2023-02-11T11:02:10.554Z,122.30
2023-02-11T11:03:09.771Z,124.40
2023-02-11T11:04:09.939Z,124.40
2023-02-11T11:05:10.134Z,130.60
2023-02-11T11:06:10.367Z,122.00
2023-02-11T11:07:10.446Z,124.80
2023-02-11T11:08:10.644Z,123.30
2023-02-11T11:09:10.836Z,122.20
2023-02-11T11:10:11.008Z,115.90
2023-02-11T11:11:11.194Z,126.30
2023-02-11T11:12:11.367Z,119.10
2023-02-11T11:13:11.584Z,118.00
2023-02-11T11:14:11.764Z,120.80
2023-02-11T11:15:11.954Z,121.30
2023-02-11T11:16:12.185Z,129.40
2023-02-11T11:17:12.273Z,123.40
2023-02-11T11:18:21.385Z,128.20
2023-02-11T11:19:13.645Z,130.70
2023-02-11T11:20:12.823Z,125.90
2023-02-11T11:21:13.004Z,129.50
2023-02-11T11:22:13.174Z,130.40
2023-02-11T11:23:13.381Z,120.20
2023-02-11T11:24:13.566Z,124.80
2023-02-11T11:25:13.773Z,129.10
2023-02-11T11:26:13.991Z,123.30
2023-02-11T11:27:14.180Z,126.30
2023-02-11T11:28:14.455Z,131.00
2023-02-11T11:29:14.555Z,123.20
2023-02-11T11:30:14.742Z,139.80
2023-02-11T11:31:15.061Z,128.70
2023-02-11T11:32:15.120Z,131.70
2023-02-11T11:33:15.310Z,135.30
2023-02-11T11:34:15.504Z,132.50
2023-02-11T11:35:15.737Z,129.60
2023-02-11T11:36:15.809Z,131.30
2023-02-11T11:37:16.014Z,135.00
2023-02-11T11:38:16.201Z,127.90
2023-02-11T11:39:16.392Z,133.00
2023-02-11T11:40:16.748Z,131.80
2023-02-11T11:41:16.757Z,136.30
2023-02-11T11:42:16.933Z,138.90
2023-02-11T11:43:17.154Z,132.30
2023-02-11T11:44:17.340Z,130.30
2023-02-11T11:45:17.522Z,120.50
2023-02-11T11:46:17.724Z,125.20
2023-02-11T11:47:17.897Z,122.10
2023-02-11T11:48:18.116Z,126.70
2023-02-11T11:49:18.307Z,121.70
2023-02-11T11:50:20.987Z,118.40
2023-02-11T11:51:18.618Z,122.60
2023-02-11T11:52:18.797Z,119.50
2023-02-11T11:53:19.007Z,118.90
2023-02-11T11:54:19.186Z,111.90
2023-02-11T11:55:19.383Z,117.40
2023-02-11T11:56:19.556Z,116.10
2023-02-11T11:57:19.750Z,112.00
2023-02-11T11:58:19.950Z,112.60
2023-02-11T11:59:20.144Z,107.60
2023-02-11T12:00:20.350Z,106.10
2023-02-11T12:01:20.539Z,107.70
2023-02-11T12:02:20.782Z,102.30
2023-02-11T12:03:20.941Z,99.90
2023-02-11T12:04:21.046Z,99.50
2023-02-11T12:05:22.190Z,99.80
2023-02-11T12:06:21.371Z,102.50
2023-02-11T12:07:23.946Z,92.80
2023-02-11T12:08:21.710Z,97.80
2023-02-11T12:09:21.891Z,99.10
2023-02-11T12:10:22.070Z,95.70
2023-02-11T12:11:22.252Z,94.70
2023-02-11T12:12:22.437Z,89.00
2023-02-11T12:13:22.643Z,92.10
2023-02-11T12:14:22.832Z,87.30
2023-02-11T12:15:23.030Z,83.70
2023-02-11T12:16:23.247Z,83.50
2023-02-11T12:17:23.408Z,82.70
2023-02-11T12:18:23.599Z,83.70
2023-02-11T12:19:23.788Z,81.60
2023-02-11T12:20:23.971Z,84.00
2023-02-11T12:21:24.158Z,80.90
2023-02-11T12:22:24.345Z,82.70
2023-02-11T12:23:24.558Z,75.70
2023-02-11T12:24:24.731Z,71.70
2023-02-11T12:25:24.918Z,78.20
2023-02-11T12:26:25.097Z,67.70
2023-02-11T12:27:25.277Z,76.50
2023-02-11T12:28:25.545Z,78.10
2023-02-11T12:29:25.672Z,74.00
2023-02-11T12:30:25.846Z,81.60
2023-02-11T12:31:26.131Z,73.20
2023-02-11T12:32:26.181Z,73.40
2023-02-11T12:33:26.423Z,75.60
2023-02-11T12:34:26.463Z,80.10
2023-02-11T12:35:26.645Z,69.80
2023-02-11T12:36:26.822Z,72.00
2023-02-11T12:37:26.999Z,80.90
2023-02-11T12:38:27.193Z,75.90
2023-02-11T12:39:27.384Z,69.10
2023-02-11T12:40:27.560Z,76.30
2023-02-11T12:41:27.746Z,74.90
2023-02-11T12:42:27.922Z,71.90
2023-02-11T12:43:28.119Z,74.70